Time;durP1;ratioP1;P1;durP2;ratioP2;P2;SDS_P1;SDS_P2;PMS_P1;PMS_P2;Temp;Humidity;BMP_temperature;BMP_pressure;BME280_temperature;BME280_humidity;BME280_pressure;Samples;Min_cycle;Max_cycle;Signal;HPM_P1;HPM_P2
2021/12/19 00:00:10;;;;;;;4.80;3.00;;;8.80;99.90;;;;;;5046387;28;20238;-79
2021/12/19 00:10:28;;;;;;;5.43;2.80;;;8.50;99.90;;;;;;5047987;28;20334;-78
2021/12/19 00:12:56;;;;;;;7.57;3.00;;;8.50;99.90;;;;;;5049744;28;20682;-76
2021/12/19 00:15:21;;;;;;;6.67;2.80;;;8.40;99.90;;;;;;5049861;28;21243;-79
2021/12/19 00:17:50;;;;;;;6.20;3.50;;;8.40;99.90;;;;;;5057754;28;20634;-78
2021/12/19 00:20:20;;;;;;;7.60;4.00;;;8.30;99.90;;;;;;5050964;28;20606;-79
2021/12/19 00:22:46;;;;;;;9.97;3.70;;;8.30;99.90;;;;;;5063375;28;20618;-79
2021/12/19 00:25:14;;;;;;;7.93;3.10;;;8.30;99.90;;;;;;5066497;28;20731;-79
2021/12/19 00:27:42;;;;;;;5.80;3.43;;;8.30;99.90;;;;;;5050304;28;20662;-79
2021/12/19 00:30:08;;;;;;;5.37;3.17;;;8.40;99.90;;;;;;5048588;28;20721;-81
2021/12/19 00:32:33;;;;;;;7.20;4.40;;;8.40;99.90;;;;;;5048142;28;20763;-79
2021/12/19 00:34:59;;;;;;;4.97;3.67;;;8.40;99.90;;;;;;5049766;28;20639;-78
2021/12/19 00:37:25;;;;;;;5.70;3.57;;;8.40;99.90;;;;;;5049047;28;20184;-79
2021/12/19 00:39:50;;;;;;;5.87;4.27;;;8.50;99.90;;;;;;5063229;28;20231;-77
2021/12/19 00:42:32;;;;;;;7.97;3.90;;;8.50;99.90;;;;;;5048785;28;20192;-77
2021/12/19 00:45:01;;;;;;;4.73;3.77;;;8.50;99.90;;;;;;5062088;28;20220;-78
2021/12/19 00:47:30;;;;;;;6.73;4.37;;;8.50;99.90;;;;;;5050769;28;20634;-77
2021/12/19 00:49:55;;;;;;;8.37;4.10;;;8.50;99.90;;;;;;5048290;28;20629;-78
2021/12/19 00:52:22;;;;;;;6.83;3.70;;;8.50;99.90;;;;;;5050109;28;20610;-78
2021/12/19 00:54:47;;;;;;;5.83;4.00;;;8.50;99.90;;;;;;5064092;28;20571;-79
2021/12/19 00:57:13;;;;;;;10.53;4.37;;;8.50;99.90;;;;;;5051115;28;20603;-78
2021/12/19 00:59:41;;;;;;;9.60;4.73;;;8.50;99.90;;;;;;5052693;28;20223;-78
2021/12/19 01:02:06;;;;;;;8.60;4.50;;;8.60;99.90;;;;;;5049765;28;20643;-78
2021/12/19 01:04:32;;;;;;;7.50;4.10;;;8.50;99.90;;;;;;5048637;28;20642;-79
2021/12/19 01:07:00;;;;;;;10.47;4.40;;;8.50;99.90;;;;;;5044692;28;20188;-78
2021/12/19 01:09:27;;;;;;;7.13;4.10;;;8.50;99.90;;;;;;5057425;28;20259;-78
2021/12/19 01:11:57;;;;;;;10.97;4.43;;;8.50;99.90;;;;;;5054124;28;20645;-78
2021/12/19 01:14:23;;;;;;;14.50;5.53;;;8.50;99.90;;;;;;5066760;28;20650;-80
2021/12/19 01:16:55;;;;;;;12.00;4.90;;;8.50;99.90;;;;;;5065984;28;20657;-81
2021/12/19 01:19:29;;;;;;;11.60;5.47;;;8.50;99.90;;;;;;5073447;28;20183;-77
2021/12/19 01:21:54;;;;;;;12.50;5.90;;;8.50;99.90;;;;;;5072418;28;20625;-78
2021/12/19 01:24:20;;;;;;;10.00;5.27;;;8.50;99.90;;;;;;5050646;28;20657;-79
2021/12/19 01:26:45;;;;;;;8.37;4.97;;;8.50;99.90;;;;;;5071870;28;20290;-78
2021/12/19 01:29:14;;;;;;;9.90;4.80;;;8.40;99.90;;;;;;5069803;28;20186;-78
2021/12/19 01:31:40;;;;;;;9.90;4.97;;;8.50;99.90;;;;;;5068799;28;20186;-78
2021/12/19 01:34:06;;;;;;;8.77;5.27;;;8.50;99.90;;;;;;5057875;28;20955;-79
2021/12/19 01:36:31;;;;;;;10.57;5.10;;;8.50;99.90;;;;;;5069781;28;20208;-78
2021/12/19 01:38:57;;;;;;;11.37;4.73;;;8.50;99.90;;;;;;5048640;28;20670;-79
2021/12/19 01:41:23;;;;;;;10.73;5.23;;;8.50;99.90;;;;;;5073060;28;20220;-79
2021/12/19 01:43:49;;;;;;;13.03;5.93;;;8.50;99.90;;;;;;5071356;28;20202;-79
2021/12/19 01:46:15;;;;;;;8.00;5.13;;;8.60;99.90;;;;;;5072461;28;20680;-78
2021/12/19 01:48:40;;;;;;;9.47;5.97;;;8.60;99.90;;;;;;5071759;28;20916;-78
2021/12/19 01:51:08;;;;;;;10.80;5.10;;;8.50;99.90;;;;;;5072393;28;20269;-78
2021/12/19 01:53:37;;;;;;;11.83;4.97;;;8.50;99.90;;;;;;5071837;28;20260;-78
2021/12/19 01:56:05;;;;;;;9.30;4.80;;;8.60;99.90;;;;;;5070810;28;20645;-79
2021/12/19 01:58:31;;;;;;;9.40;4.90;;;8.30;99.90;;;;;;5070698;28;20720;-79
2021/12/19 02:00:57;;;;;;;15.17;4.63;;;8.60;99.90;;;;;;5069158;28;21203;-77
2021/12/19 02:03:24;;;;;;;11.57;5.47;;;8.60;99.90;;;;;;5056456;28;20215;-77
2021/12/19 02:05:52;;;;;;;8.00;5.43;;;8.60;99.90;;;;;;5068487;28;20669;-77
2021/12/19 02:08:18;;;;;;;13.20;5.50;;;8.60;99.90;;;;;;5072030;28;20636;-79
2021/12/19 02:10:45;;;;;;;12.40;5.17;;;8.60;99.90;;;;;;5070137;28;20636;-77
2021/12/19 02:13:13;;;;;;;10.87;4.80;;;8.50;99.90;;;;;;5071486;28;20609;-80
2021/12/19 02:15:41;;;;;;;15.03;5.20;;;8.60;99.90;;;;;;5068613;28;21136;-78
2021/12/19 02:18:13;;;;;;;10.83;4.73;;;8.60;99.90;;;;;;5070403;28;20990;-78
2021/12/19 02:20:43;;;;;;;12.97;5.40;;;8.60;99.90;;;;;;5066184;28;21072;-80
2021/12/19 02:23:10;;;;;;;9.33;5.40;;;8.60;99.90;;;;;;5043629;28;20624;-78
2021/12/19 02:25:42;;;;;;;10.27;4.57;;;8.50;99.90;;;;;;5050143;28;21174;-77
2021/12/19 02:28:12;;;;;;;11.50;5.90;;;8.60;99.90;;;;;;5069168;28;20663;-78
2021/12/19 02:30:37;;;;;;;9.30;5.03;;;8.60;99.90;;;;;;5065729;28;21230;-78
2021/12/19 02:33:14;;;;;;;11.53;5.10;;;8.60;99.90;;;;;;5065174;28;20606;-78
2021/12/19 02:35:48;;;;;;;9.77;6.00;;;8.60;99.90;;;;;;5068683;28;20226;-78
2021/12/19 02:49:22;;;;;;;9.70;5.23;;;8.50;99.90;;;;;;5066816;28;20966;-78
2021/12/19 02:51:51;;;;;;;12.33;5.67;;;8.50;99.90;;;;;;5045594;28;20606;-80
2021/12/19 02:54:17;;;;;;;7.80;4.70;;;8.50;99.90;;;;;;5070649;28;20720;-79
2021/12/19 02:56:43;;;;;;;7.90;4.97;;;8.40;99.90;;;;;;5071763;28;20702;-79
2021/12/19 02:59:09;;;;;;;8.00;4.57;;;8.50;99.90;;;;;;5072681;28;20659;-78
2021/12/19 03:01:34;;;;;;;11.23;5.10;;;8.40;99.90;;;;;;5072907;28;20183;-79
2021/12/19 03:04:00;;;;;;;9.20;4.80;;;8.40;99.90;;;;;;5074016;28;20254;-83
2021/12/19 03:06:26;;;;;;;12.47;4.90;;;8.40;99.90;;;;;;5068369;28;20219;-79
2021/12/19 03:08:57;;;;;;;9.80;5.37;;;8.40;99.90;;;;;;5069322;28;20616;-78
2021/12/19 03:12:04;;;;;;;10.20;5.87;;;8.70;99.90;;;;;;5070884;28;20306;-78
2021/12/19 03:19:59;;;;;;;6.03;4.07;;;8.40;99.90;;;;;;5068293;28;20668;-78
2021/12/19 03:22:25;;;;;;;7.33;4.47;;;8.40;99.90;;;;;;5053814;28;20782;-79
2021/12/19 03:24:50;;;;;;;6.73;4.20;;;8.70;99.90;;;;;;5070921;28;21764;-79
2021/12/19 03:27:19;;;;;;;9.43;4.57;;;8.40;99.90;;;;;;5070459;28;20194;-79
2021/12/19 03:29:46;;;;;;;9.40;3.87;;;8.40;99.90;;;;;;5069481;28;20298;-80
2021/12/19 03:32:12;;;;;;;5.97;3.50;;;8.40;99.90;;;;;;5071180;28;20612;-79
2021/12/19 03:34:37;;;;;;;6.07;3.40;;;8.50;99.90;;;;;;5068898;28;20708;-78
2021/12/19 03:37:03;;;;;;;7.30;2.87;;;8.50;99.90;;;;;;5073721;28;20516;-79
2021/12/19 03:39:37;;;;;;;5.80;2.90;;;8.50;99.90;;;;;;5044989;28;20219;-79
2021/12/19 03:42:04;;;;;;;5.67;2.70;;;8.50;99.90;;;;;;5068174;28;20171;-79
2021/12/19 03:44:29;;;;;;;6.50;2.23;;;8.50;99.90;;;;;;5068653;28;21233;-79
2021/12/19 03:46:55;;;;;;;3.40;2.03;;;8.50;99.90;;;;;;5069880;28;20729;-79
2021/12/19 03:49:21;;;;;;;2.83;1.70;;;8.40;99.90;;;;;;5069007;28;20292;-79
2021/12/19 03:51:48;;;;;;;7.53;1.80;;;8.40;99.90;;;;;;5070473;28;20203;-79
2021/12/19 03:54:14;;;;;;;4.20;1.70;;;8.40;99.90;;;;;;5069142;28;20203;-79
2021/12/19 03:56:40;;;;;;;4.67;1.50;;;8.40;99.90;;;;;;5069450;28;21317;-77
2021/12/19 03:59:07;;;;;;;1.40;1.23;;;8.30;99.90;;;;;;5070802;28;20613;-79
2021/12/19 04:01:36;;;;;;;2.17;1.10;;;8.30;99.90;;;;;;5045232;28;20175;-77
2021/12/19 04:04:04;;;;;;;3.00;1.73;;;8.30;99.90;;;;;;5073138;28;20664;-80
2021/12/19 04:06:30;;;;;;;5.30;1.70;;;8.30;99.90;;;;;;5070284;28;23617;-77
2021/12/19 04:08:56;;;;;;;2.17;1.10;;;8.30;99.90;;;;;;5069145;28;20828;-78
2021/12/19 04:11:24;;;;;;;3.57;1.67;;;8.30;99.90;;;;;;5069237;28;20223;-79
2021/12/19 04:13:50;;;;;;;5.40;1.10;;;8.30;99.90;;;;;;5050729;28;20676;-78
2021/12/19 04:16:16;;;;;;;1.50;1.00;;;8.30;99.90;;;;;;5054357;28;21059;-80
2021/12/19 04:18:41;;;;;;;4.27;1.70;;;8.30;99.90;;;;;;5046775;28;20250;-80
2021/12/19 04:21:07;;;;;;;2.57;1.90;;;8.30;99.90;;;;;;5046401;28;20225;-79
2021/12/19 04:23:38;;;;;;;4.20;1.80;;;8.20;99.90;;;;;;5078804;28;20198;-78
2021/12/19 04:26:03;;;;;;;3.93;2.27;;;8.20;99.90;;;;;;5069652;28;20293;-79
2021/12/19 04:28:29;;;;;;;8.23;2.43;;;8.10;99.90;;;;;;5049825;28;21144;-78
2021/12/19 04:31:02;;;;;;;3.80;2.20;;;8.20;99.90;;;;;;5073934;28;20292;-78
2021/12/19 04:33:29;;;;;;;3.63;3.07;;;8.20;99.90;;;;;;5058696;28;20183;-78
2021/12/19 04:36:00;;;;;;;3.40;2.33;;;8.20;99.90;;;;;;5069611;28;20637;-78
2021/12/19 04:54:58;;;;;;;4.60;1.73;;;8.20;99.90;;;;;;5075116;28;20987;-81
2021/12/19 04:57:35;;;;;;;3.13;2.00;;;8.20;99.90;;;;;;5053398;28;20206;-79
2021/12/19 05:00:09;;;;;;;2.63;2.23;;;8.20;99.90;;;;;;5071204;28;20748;-79
2021/12/19 05:02:56;;;;;;;2.87;1.83;;;8.20;99.90;;;;;;5052498;28;20931;-79
2021/12/19 05:16:00;;;;;;;5.37;2.70;;;8.30;99.90;;;;;;5070819;28;21061;-76
2021/12/19 05:18:32;;;;;;;5.20;2.83;;;8.30;99.90;;;;;;5050138;28;20928;-78
2021/12/19 05:21:06;;;;;;;4.33;2.80;;;8.30;99.90;;;;;;5069001;28;20582;-77
2021/12/19 05:25:58;;;;;;;8.63;3.00;;;8.30;99.90;;;;;;5070744;28;20766;-78
2021/12/19 05:28:24;;;;;;;5.70;2.67;;;8.30;99.90;;;;;;5048685;28;20943;-77
2021/12/19 05:30:52;;;;;;;7.30;2.90;;;8.30;99.90;;;;;;5069896;28;20660;-77
2021/12/19 05:33:18;;;;;;;6.57;2.30;;;8.30;99.90;;;;;;5070768;28;20184;-79
2021/12/19 05:46:24;;;;;;;5.07;2.00;;;8.30;99.90;;;;;;5071309;28;20737;-78
2021/12/19 05:48:49;;;;;;;7.33;2.53;;;8.40;99.90;;;;;;5051798;28;20618;-79
2021/12/19 05:51:18;;;;;;;5.93;2.60;;;8.40;99.90;;;;;;5068745;28;20697;-79
2021/12/19 05:53:44;;;;;;;5.67;2.40;;;8.40;99.90;;;;;;5070481;28;20183;-79
2021/12/19 05:56:12;;;;;;;7.63;2.60;;;8.40;99.90;;;;;;5070985;28;20644;-79
2021/12/19 05:58:37;;;;;;;4.93;2.20;;;8.40;99.90;;;;;;5071113;28;20198;-77
2021/12/19 06:01:03;;;;;;;7.57;2.70;;;8.50;99.90;;;;;;5067108;28;20645;-77
2021/12/19 06:03:29;;;;;;;4.13;2.10;;;8.50;99.90;;;;;;5070364;28;20196;-79
2021/12/19 06:05:55;;;;;;;7.17;2.70;;;8.40;99.90;;;;;;5066699;28;20758;-78
2021/12/19 06:08:20;;;;;;;4.30;2.30;;;8.40;99.90;;;;;;5050310;28;20184;-78
2021/12/19 06:10:51;;;;;;;6.30;3.10;;;8.40;99.90;;;;;;5052526;28;20797;-77
2021/12/19 06:13:16;;;;;;;7.30;3.37;;;8.30;99.90;;;;;;5071848;28;20276;-77
2021/12/19 06:15:42;;;;;;;7.17;2.80;;;8.40;99.90;;;;;;5071724;28;20677;-80
2021/12/19 06:18:07;;;;;;;9.00;3.13;;;8.40;99.90;;;;;;5077077;28;20203;-80
2021/12/19 06:20:33;;;;;;;7.20;2.70;;;8.50;99.90;;;;;;5061681;28;20708;-82
2021/12/19 06:22:59;;;;;;;2.73;2.10;;;8.50;99.90;;;;;;5080916;28;20182;-84
2021/12/19 06:25:25;;;;;;;7.80;2.67;;;8.50;99.90;;;;;;5078688;28;20223;-82
2021/12/19 06:27:51;;;;;;;4.80;2.80;;;8.50;99.90;;;;;;5080458;28;20667;-79
2021/12/19 06:30:20;;;;;;;9.60;2.60;;;8.40;99.90;;;;;;5058775;28;20638;-79
2021/12/19 06:32:48;;;;;;;10.50;3.27;;;8.50;99.90;;;;;;5070769;28;20475;-77
2021/12/19 06:35:21;;;;;;;7.57;2.90;;;8.50;99.90;;;;;;5065004;28;21277;-79
2021/12/19 06:37:51;;;;;;;8.63;3.20;;;8.50;99.90;;;;;;5067644;28;20602;-82
2021/12/19 06:40:19;;;;;;;5.30;2.40;;;8.60;99.90;;;;;;5048767;28;20668;-80
2021/12/19 06:42:45;;;;;;;7.27;2.90;;;8.60;99.90;;;;;;5059011;28;20767;-80
2021/12/19 06:45:11;;;;;;;8.43;2.67;;;8.60;99.90;;;;;;5074612;28;21581;-79
2021/12/19 06:47:37;;;;;;;5.70;2.97;;;8.70;99.90;;;;;;5070172;28;20637;-80
2021/12/19 06:50:07;;;;;;;6.30;2.30;;;8.70;99.90;;;;;;5066317;28;20641;-80
2021/12/19 06:52:33;;;;;;;6.33;2.63;;;8.60;99.90;;;;;;5071306;28;20630;-79
2021/12/19 06:55:01;;;;;;;4.13;2.27;;;8.70;99.90;;;;;;5066440;28;20665;-81
2021/12/19 06:57:27;;;;;;;8.90;2.30;;;8.60;99.90;;;;;;5070544;28;20191;-80
2021/12/19 06:59:52;;;;;;;6.70;3.00;;;8.60;99.90;;;;;;5058841;28;20645;-79
2021/12/19 07:02:18;;;;;;;4.60;2.27;;;8.60;99.90;;;;;;5042550;28;20195;-78
2021/12/19 07:04:44;;;;;;;7.67;2.70;;;8.90;99.90;;;;;;5047863;28;20687;-82
2021/12/19 07:07:10;;;;;;;5.00;2.37;;;8.60;99.90;;;;;;5046265;28;20274;-81
2021/12/19 07:09:36;;;;;;;4.63;2.97;;;8.60;99.90;;;;;;5047792;28;20732;-82
2021/12/19 07:12:02;;;;;;;7.13;2.27;;;8.70;99.90;;;;;;5077455;28;20618;-81
2021/12/19 07:14:28;;;;;;;7.60;3.00;;;8.70;99.90;;;;;;5066931;28;20183;-78
2021/12/19 07:16:54;;;;;;;3.80;2.10;;;8.70;99.90;;;;;;5036316;28;20668;-80
2021/12/19 07:19:19;;;;;;;6.63;2.20;;;8.70;99.90;;;;;;5058562;28;21019;-82
2021/12/19 07:21:45;;;;;;;5.00;2.53;;;8.70;99.90;;;;;;5070529;28;20179;-80
2021/12/19 07:24:10;;;;;;;5.07;2.23;;;9.00;99.90;;;;;;5067634;28;20187;-80
2021/12/19 07:26:36;;;;;;;8.27;2.77;;;8.70;99.90;;;;;;5049828;28;20310;-79
2021/12/19 07:29:02;;;;;;;4.10;2.47;;;8.70;99.90;;;;;;5041862;28;20745;-81
2021/12/19 07:31:30;;;;;;;5.50;2.50;;;8.70;99.90;;;;;;5048228;28;20209;-81
2021/12/19 07:33:56;;;;;;;7.60;2.63;;;8.70;99.90;;;;;;5041663;28;20654;-78
2021/12/19 07:36:25;;;;;;;8.10;2.47;;;8.70;99.90;;;;;;5060570;28;20652;-78
2021/12/19 07:38:58;;;;;;;5.13;2.20;;;8.70;99.90;;;;;;5066397;28;20622;-80
2021/12/19 07:41:23;;;;;;;8.07;3.70;;;8.80;99.90;;;;;;5047454;28;21223;-80
2021/12/19 07:43:49;;;;;;;4.13;1.60;;;8.80;99.90;;;;;;5057441;28;20626;-81
2021/12/19 07:46:15;;;;;;;4.57;2.20;;;8.80;99.90;;;;;;5043206;28;20242;-79
2021/12/19 07:48:41;;;;;;;2.57;1.60;;;8.80;99.90;;;;;;5046138;28;20191;-80
2021/12/19 07:51:06;;;;;;;4.00;1.73;;;8.70;99.90;;;;;;5071434;28;20767;-81
2021/12/19 07:53:32;;;;;;;7.90;2.40;;;8.70;99.90;;;;;;5056302;28;20764;-79
2021/12/19 07:55:59;;;;;;;6.30;2.27;;;8.70;99.90;;;;;;5072985;28;20210;-80
2021/12/19 07:58:25;;;;;;;6.80;2.53;;;8.80;99.90;;;;;;5066198;28;20186;-79
2021/12/19 08:00:50;;;;;;;7.17;2.27;;;8.80;99.90;;;;;;5049544;28;20684;-78
2021/12/19 08:03:16;;;;;;;3.63;2.10;;;8.70;99.90;;;;;;5064107;28;20383;-80
2021/12/19 08:05:42;;;;;;;6.30;2.20;;;8.70;99.90;;;;;;5070077;28;20314;-79
2021/12/19 08:08:10;;;;;;;6.33;2.20;;;8.70;99.90;;;;;;5034667;28;20183;-81
2021/12/19 08:13:06;;;;;;;6.33;1.70;;;8.80;99.90;;;;;;5058687;28;20968;-78
2021/12/19 08:15:36;;;;;;;7.80;2.97;;;9.10;99.90;;;;;;5055950;28;20215;-80
2021/12/19 08:18:02;;;;;;;7.83;2.37;;;8.80;99.90;;;;;;5040279;28;20629;-82
2021/12/19 08:20:29;;;;;;;4.70;2.10;;;8.80;99.90;;;;;;5063925;28;20633;-78
2021/12/19 08:22:55;;;;;;;5.87;2.23;;;8.80;99.90;;;;;;5059904;28;20625;-78
2021/12/19 08:25:23;;;;;;;6.57;2.43;;;8.90;99.90;;;;;;5049162;28;20697;-76
2021/12/19 08:27:49;;;;;;;9.83;2.70;;;8.90;99.90;;;;;;5067357;28;20712;-80
2021/12/19 08:30:16;;;;;;;5.13;2.27;;;8.90;99.90;;;;;;5066908;28;22130;-80
2021/12/19 08:32:43;;;;;;;4.63;2.30;;;8.90;99.90;;;;;;5067472;28;20192;-78
2021/12/19 08:35:10;;;;;;;4.40;2.27;;;8.90;99.90;;;;;;5074556;28;20661;-81
2021/12/19 08:37:36;;;;;;;7.40;3.80;;;8.90;99.90;;;;;;5077468;28;20679;-78
2021/12/19 08:40:03;;;;;;;6.40;2.23;;;8.90;99.90;;;;;;5060897;28;20633;-77
2021/12/19 08:42:31;;;;;;;6.40;2.33;;;8.90;99.90;;;;;;5056243;28;20190;-78
2021/12/19 08:44:58;;;;;;;6.50;2.17;;;8.90;99.90;;;;;;5064666;28;21224;-81
2021/12/19 08:47:23;;;;;;;4.70;2.10;;;8.90;99.90;;;;;;5065526;28;20609;-80
2021/12/19 08:49:49;;;;;;;6.10;1.80;;;8.90;99.90;;;;;;5067442;28;20649;-82
2021/12/19 08:52:15;;;;;;;6.90;1.97;;;8.90;99.90;;;;;;5072345;28;20194;-80
2021/12/19 08:54:43;;;;;;;5.80;2.40;;;8.90;99.90;;;;;;5063621;28;20192;-80
2021/12/19 08:57:08;;;;;;;6.23;1.93;;;8.90;99.90;;;;;;5051339;28;20187;-80
2021/12/19 08:59:34;;;;;;;9.30;3.20;;;9.00;99.90;;;;;;5054987;28;20649;-81
2021/12/19 09:02:01;;;;;;;5.10;2.20;;;9.00;99.90;;;;;;5051136;28;20200;-82
2021/12/19 09:04:28;;;;;;;4.27;1.60;;;9.10;99.90;;;;;;5056132;28;20199;-80
2021/12/19 09:06:56;;;;;;;3.40;1.80;;;9.00;99.90;;;;;;5052995;28;21261;-79
2021/12/19 09:09:22;;;;;;;2.37;1.70;;;9.00;99.90;;;;;;5046644;28;20617;-79
2021/12/19 09:11:48;;;;;;;4.97;2.00;;;9.10;99.90;;;;;;5058390;28;20618;-80
2021/12/19 09:14:14;;;;;;;5.57;2.30;;;9.10;99.90;;;;;;5060285;28;20702;-81
2021/12/19 09:16:42;;;;;;;3.30;1.90;;;9.10;99.90;;;;;;5058796;28;20684;-82
2021/12/19 09:19:07;;;;;;;4.63;2.07;;;9.20;99.90;;;;;;5040205;28;20285;-80
2021/12/19 09:21:33;;;;;;;8.37;2.40;;;9.10;99.90;;;;;;5048188;28;20653;-79
2021/12/19 09:23:58;;;;;;;8.13;2.23;;;9.10;99.90;;;;;;5059211;28;20207;-79
2021/12/19 09:26:24;;;;;;;5.90;2.10;;;9.00;99.90;;;;;;5040798;28;20673;-77
2021/12/19 09:28:50;;;;;;;14.43;3.97;;;9.10;99.90;;;;;;5062005;28;20192;-83
2021/12/19 09:31:15;;;;;;;8.17;2.00;;;9.10;99.90;;;;;;5053357;28;20207;-84
2021/12/19 09:33:41;;;;;;;4.93;1.93;;;9.30;99.90;;;;;;5073700;28;20685;-83
2021/12/19 09:36:07;;;;;;;7.57;2.37;;;9.20;99.90;;;;;;5053044;28;20237;-86
2021/12/19 09:38:36;;;;;;;5.07;2.37;;;9.20;99.90;;;;;;5060603;28;20184;-86
2021/12/19 09:41:13;;;;;;;7.43;2.00;;;9.20;99.90;;;;;;5074022;28;20215;-83
2021/12/19 09:43:43;;;;;;;6.00;2.30;;;9.30;99.90;;;;;;5073843;28;20594;-83
2021/12/19 09:46:15;;;;;;;3.47;1.83;;;9.20;99.90;;;;;;5053971;28;21150;-82
2021/12/19 09:48:42;;;;;;;7.47;2.83;;;9.20;99.90;;;;;;5068430;28;20628;-83
2021/12/19 09:51:10;;;;;;;13.53;3.67;;;9.20;99.90;;;;;;5070724;28;20655;-85
2021/12/19 09:53:36;;;;;;;4.40;1.70;;;9.20;99.90;;;;;;5065711;28;20712;-84
2021/12/19 09:56:02;;;;;;;6.07;2.03;;;9.30;99.90;;;;;;5051468;28;21248;-83
2021/12/19 09:58:31;;;;;;;10.23;2.60;;;9.30;99.90;;;;;;5057006;28;20632;-84
2021/12/19 10:00:57;;;;;;;2.40;1.80;;;9.30;99.90;;;;;;5071501;28;20633;-86
2021/12/19 10:03:22;;;;;;;7.30;2.40;;;9.30;99.90;;;;;;5064822;28;20617;-84
2021/12/19 10:05:48;;;;;;;5.60;2.10;;;9.30;99.90;;;;;;5061659;28;20468;-83
2021/12/19 10:08:25;;;;;;;8.23;2.83;;;9.40;99.90;;;;;;5063158;28;20274;-82
2021/12/19 10:10:57;;;;;;;7.77;2.57;;;9.60;99.90;;;;;;5069895;28;20220;-83
2021/12/19 10:13:34;;;;;;;6.03;2.50;;;9.30;99.90;;;;;;5057908;28;20705;-85
2021/12/19 10:16:01;;;;;;;5.90;2.63;;;9.40;99.90;;;;;;5047773;28;21257;-83
2021/12/19 10:18:27;;;;;;;6.10;2.10;;;9.40;99.90;;;;;;5053954;28;20625;-85
2021/12/19 10:20:58;;;;;;;9.87;2.40;;;9.40;99.90;;;;;;5056224;28;20639;-83
2021/12/19 10:23:30;;;;;;;6.23;2.60;;;9.40;99.90;;;;;;5052116;28;20626;-86
2021/12/19 10:26:00;;;;;;;3.90;1.97;;;9.40;99.90;;;;;;5070352;28;20687;-84
2021/12/19 10:28:27;;;;;;;5.70;2.30;;;9.40;99.90;;;;;;5074414;28;20597;-84
2021/12/19 10:30:56;;;;;;;5.00;2.40;;;9.40;99.90;;;;;;5052792;28;20816;-84
2021/12/19 10:33:26;;;;;;;7.83;2.20;;;9.40;99.90;;;;;;5046468;28;20633;-84
2021/12/19 10:35:54;;;;;;;4.43;2.70;;;9.40;99.90;;;;;;5050016;28;20755;-88
2021/12/19 10:38:29;;;;;;;9.00;2.10;;;9.60;99.90;;;;;;5068525;28;20625;-86
2021/12/19 10:40:58;;;;;;;11.70;2.20;;;9.50;99.90;;;;;;5072024;28;20649;-85
2021/12/19 10:43:28;;;;;;;9.27;2.20;;;9.50;99.90;;;;;;5050800;28;20618;-83
2021/12/19 10:45:59;;;;;;;5.47;1.77;;;9.50;99.90;;;;;;5066582;28;22692;-84
2021/12/19 10:48:32;;;;;;;11.93;2.83;;;9.50;99.90;;;;;;5069812;28;20570;-84
2021/12/19 10:50:59;;;;;;;8.63;2.90;;;9.60;99.90;;;;;;5073475;28;20709;-85
2021/12/19 10:53:29;;;;;;;6.60;2.27;;;9.60;99.90;;;;;;5055074;28;20629;-84
2021/12/19 10:55:56;;;;;;;8.13;2.40;;;9.50;99.90;;;;;;5073441;28;21235;-84
2021/12/19 10:58:26;;;;;;;8.13;2.70;;;9.60;99.90;;;;;;5068922;28;20653;-84
2021/12/19 11:01:03;;;;;;;6.70;2.50;;;9.60;99.90;;;;;;5072588;28;21058;-83
2021/12/19 11:03:42;;;;;;;3.90;2.00;;;9.60;99.90;;;;;;5055833;28;20617;-85
2021/12/19 11:06:19;;;;;;;8.60;2.27;;;9.60;99.90;;;;;;5070442;28;20703;-86
2021/12/19 11:08:45;;;;;;;3.90;2.57;;;9.60;99.90;;;;;;5076576;28;21165;-86
2021/12/19 11:11:12;;;;;;;5.43;2.50;;;9.50;99.90;;;;;;5077375;28;20618;-86
2021/12/19 11:13:40;;;;;;;9.93;3.07;;;9.60;99.90;;;;;;5075044;28;20688;-85
2021/12/19 11:16:06;;;;;;;10.33;2.60;;;9.60;99.90;;;;;;5071539;28;20743;-87
2021/12/19 11:18:34;;;;;;;5.97;2.37;;;9.60;99.90;;;;;;5053073;28;20649;-84
2021/12/19 11:20:59;;;;;;;7.40;2.40;;;9.70;99.90;;;;;;5059960;28;20230;-85
2021/12/19 11:23:26;;;;;;;7.70;2.43;;;9.60;99.90;;;;;;5078297;28;21207;-86
2021/12/19 11:25:54;;;;;;;8.60;2.67;;;9.60;99.90;;;;;;5076523;28;20215;-86
2021/12/19 11:28:20;;;;;;;6.70;2.37;;;9.60;99.90;;;;;;5052810;28;20642;-85
2021/12/19 11:30:47;;;;;;;6.50;2.90;;;9.60;99.90;;;;;;5056122;28;20633;-84
2021/12/19 11:34:00;;;;;;;7.87;2.30;;;9.60;99.90;;;;;;5074785;28;20617;-86
2021/12/19 11:36:31;;;;;;;7.40;2.30;;;9.70;99.90;;;;;;5050897;28;21097;-85
2021/12/19 11:39:06;;;;;;;7.53;2.73;;;9.60;99.90;;;;;;5078054;28;20641;-86
2021/12/19 11:41:32;;;;;;;5.40;2.53;;;9.70;99.90;;;;;;5078962;28;20640;-87
2021/12/19 11:44:02;;;;;;;5.97;2.27;;;10.00;99.90;;;;;;5076608;28;20617;-85
2021/12/19 11:46:52;;;;;;;5.73;2.03;;;9.70;99.90;;;;;;5076859;28;20689;-86
2021/12/19 11:49:22;;;;;;;9.07;2.13;;;9.70;99.90;;;;;;5057196;28;20977;-85
2021/12/19 11:52:08;;;;;;;7.03;2.53;;;9.70;99.90;;;;;;5076848;28;20648;-86
2021/12/19 11:54:34;;;;;;;3.77;2.20;;;9.60;99.90;;;;;;5050489;28;20613;-86
2021/12/19 11:57:07;;;;;;;4.33;2.70;;;9.60;99.90;;;;;;5059872;28;21333;-84
2021/12/19 11:59:33;;;;;;;6.10;3.50;;;9.70;99.90;;;;;;5072864;28;20291;-85
2021/12/19 12:02:24;;;;;;;10.00;2.60;;;9.70;99.90;;;;;;5071720;28;20673;-82
2021/12/19 12:05:12;;;;;;;6.73;2.13;;;9.70;99.90;;;;;;5075404;28;20663;-85
2021/12/19 12:08:07;;;;;;;7.60;1.90;;;9.70;99.90;;;;;;5068728;28;20629;-85
2021/12/19 12:10:51;;;;;;;6.03;2.13;;;9.70;99.90;;;;;;5052612;28;21208;-86
2021/12/19 12:13:27;;;;;;;5.77;2.00;;;9.70;99.90;;;;;;5064668;28;20618;-85
2021/12/19 12:16:02;;;;;;;6.60;2.10;;;9.70;99.90;;;;;;5072834;28;20679;-84
2021/12/19 12:18:33;;;;;;;5.00;1.80;;;9.70;99.90;;;;;;5048290;28;20769;-88
2021/12/19 12:21:23;;;;;;;5.93;2.00;;;9.70;99.90;;;;;;5062892;28;20652;-85
2021/12/19 12:23:59;;;;;;;4.70;2.50;;;9.80;99.90;;;;;;5070264;28;20677;-84
2021/12/19 12:26:40;;;;;;;7.73;2.60;;;9.70;99.90;;;;;;5050875;28;20697;-90
2021/12/19 12:29:07;;;;;;;6.67;2.00;;;9.80;99.90;;;;;;5066542;28;21074;-83
2021/12/19 12:31:34;;;;;;;5.73;2.30;;;9.80;99.90;;;;;;5067627;28;21168;-87
2021/12/19 12:34:00;;;;;;;5.93;2.03;;;9.80;99.90;;;;;;5054424;28;20691;-84
2021/12/19 12:36:25;;;;;;;8.40;2.97;;;9.70;99.90;;;;;;5074649;28;20625;-85
2021/12/19 12:38:54;;;;;;;3.30;1.80;;;9.70;99.90;;;;;;5082704;28;20702;-87
2021/12/19 12:44:11;;;;;;;3.40;1.33;;;9.70;99.90;;;;;;5070907;28;20680;-86
2021/12/19 12:46:40;;;;;;;10.63;4.63;;;9.70;99.90;;;;;;5063836;28;21180;-87
2021/12/19 12:49:08;;;;;;;12.37;3.10;;;9.70;99.90;;;;;;5044508;28;20617;-85
2021/12/19 12:51:39;;;;;;;10.10;1.70;;;9.80;99.90;;;;;;5049743;28;20617;-86
2021/12/19 12:54:26;;;;;;;6.00;1.83;;;9.80;99.90;;;;;;5052521;28;21113;-86
2021/12/19 12:56:54;;;;;;;4.90;2.10;;;9.80;99.90;;;;;;5067794;28;20629;-85
2021/12/19 12:59:24;;;;;;;9.53;2.10;;;9.70;99.90;;;;;;5066009;28;20617;-85
2021/12/19 13:01:53;;;;;;;4.43;2.03;;;9.90;99.90;;;;;;5066883;28;20625;-85
2021/12/19 13:04:24;;;;;;;5.07;1.90;;;9.90;99.90;;;;;;5049415;28;20612;-82
2021/12/19 13:07:16;;;;;;;6.80;1.93;;;9.90;99.90;;;;;;5069120;28;20704;-81
2021/12/19 13:10:00;;;;;;;10.50;2.40;;;9.90;99.90;;;;;;5070044;28;20637;-82
2021/12/19 13:12:35;;;;;;;9.00;3.30;;;9.80;99.90;;;;;;5064898;28;20651;-83
2021/12/19 13:15:10;;;;;;;5.73;2.03;;;9.80;99.90;;;;;;5048705;28;20728;-82
2021/12/19 13:17:50;;;;;;;4.93;1.83;;;9.80;99.90;;;;;;5070125;28;20668;-81
2021/12/19 13:20:27;;;;;;;8.03;1.80;;;9.80;99.90;;;;;;5070746;28;20649;-83
2021/12/19 13:22:58;;;;;;;7.77;3.27;;;9.80;99.90;;;;;;5052306;28;20731;-81
2021/12/19 13:25:27;;;;;;;7.30;2.00;;;9.90;99.90;;;;;;5069833;28;20681;-80
2021/12/19 13:27:55;;;;;;;6.80;2.07;;;9.90;99.90;;;;;;5051125;28;20629;-82
2021/12/19 13:30:31;;;;;;;6.13;1.83;;;10.20;99.90;;;;;;5073215;28;20758;-81
2021/12/19 13:32:56;;;;;;;7.27;2.00;;;9.80;99.90;;;;;;5073971;28;20639;-81
2021/12/19 13:35:44;;;;;;;5.17;1.83;;;9.90;99.90;;;;;;5070937;28;20657;-83
2021/12/19 13:38:12;;;;;;;6.97;2.37;;;9.70;99.90;;;;;;5054452;28;20237;-82
2021/12/19 13:40:39;;;;;;;4.77;1.60;;;9.80;99.90;;;;;;5071739;28;20648;-82
2021/12/19 13:43:19;;;;;;;6.97;2.43;;;9.90;99.90;;;;;;5075243;28;20631;-83
2021/12/19 13:45:56;;;;;;;5.77;1.80;;;9.90;99.90;;;;;;5071590;28;20661;-83
2021/12/19 13:48:29;;;;;;;13.33;2.27;;;9.90;99.90;;;;;;5074137;28;20605;-86
2021/12/19 13:50:57;;;;;;;6.03;2.23;;;9.90;99.90;;;;;;5070520;28;20709;-84
2021/12/19 13:53:28;;;;;;;10.57;2.57;;;9.80;99.90;;;;;;5071722;28;20609;-84
2021/12/19 13:56:06;;;;;;;7.23;1.90;;;9.90;99.90;;;;;;5057851;28;20673;-84
2021/12/19 13:58:46;;;;;;;12.20;2.67;;;9.90;99.90;;;;;;5075091;28;21199;-84
2021/12/19 14:01:16;;;;;;;7.67;2.53;;;9.80;99.90;;;;;;5070063;28;20637;-84
2021/12/19 14:03:59;;;;;;;8.00;2.50;;;9.80;99.90;;;;;;5071231;28;20622;-83
2021/12/19 14:06:32;;;;;;;10.30;2.33;;;9.80;99.90;;;;;;5049640;28;20730;-80
2021/12/19 14:09:05;;;;;;;12.40;3.20;;;9.80;99.90;;;;;;5061561;28;20624;-84
2021/12/19 14:11:31;;;;;;;7.73;2.33;;;9.70;99.90;;;;;;5040318;28;20767;-84
2021/12/19 14:14:23;;;;;;;7.97;2.57;;;9.80;99.90;;;;;;5066070;28;20744;-80